sensor_id;sensor_type;location;lat;lon;timestamp;P1;durP1;ratioP1;P2;durP2;ratioP2
12214;SDS011;6170;42.206;24.142;2022-09-21T00:01:51;2.05;;;1.65;;
12214;SDS011;6170;42.206;24.142;2022-09-21T00:04:18;1.83;;;1.70;;
12214;SDS011;6170;42.206;24.142;2022-09-21T00:06:46;2.90;;;1.75;;
12214;SDS011;6170;42.206;24.142;2022-09-21T00:09:13;2.28;;;1.83;;
12214;SDS011;6170;42.206;24.142;2022-09-21T00:11:40;2.88;;;1.90;;
12214;SDS011;6170;42.206;24.142;2022-09-21T00:14:07;2.10;;;1.88;;
12214;SDS011;6170;42.206;24.142;2022-09-21T00:16:36;5.13;;;2.22;;
12214;SDS011;6170;42.206;24.142;2022-09-21T00:19:04;1.98;;;1.70;;
12214;SDS011;6170;42.206;24.142;2022-09-21T00:21:32;2.28;;;1.60;;
12214;SDS011;6170;42.206;24.142;2022-09-21T00:24:01;2.22;;;1.40;;
12214;SDS011;6170;42.206;24.142;2022-09-21T00:26:28;1.90;;;1.70;;
12214;SDS011;6170;42.206;24.142;2022-09-21T00:28:56;2.13;;;1.70;;
12214;SDS011;6170;42.206;24.142;2022-09-21T00:31:25;2.13;;;1.70;;
12214;SDS011;6170;42.206;24.142;2022-09-21T00:33:53;2.10;;;1.90;;
12214;SDS011;6170;42.206;24.142;2022-09-21T00:36:21;2.05;;;1.65;;
12214;SDS011;6170;42.206;24.142;2022-09-21T00:38:49;2.90;;;1.92;;
12214;SDS011;6170;42.206;24.142;2022-09-21T00:41:19;2.63;;;2.20;;
12214;SDS011;6170;42.206;24.142;2022-09-21T00:43:47;2.40;;;1.90;;
12214;SDS011;6170;42.206;24.142;2022-09-21T00:46:18;3.50;;;1.73;;
12214;SDS011;6170;42.206;24.142;2022-09-21T00:48:49;1.95;;;1.77;;
12214;SDS011;6170;42.206;24.142;2022-09-21T00:51:16;2.17;;;1.80;;
12214;SDS011;6170;42.206;24.142;2022-09-21T00:53:43;2.10;;;1.88;;
12214;SDS011;6170;42.206;24.142;2022-09-21T00:56:11;2.75;;;2.08;;
12214;SDS011;6170;42.206;24.142;2022-09-21T00:58:42;2.10;;;1.90;;
12214;SDS011;6170;42.206;24.142;2022-09-21T01:01:11;5.43;;;2.22;;
12214;SDS011;6170;42.206;24.142;2022-09-21T01:03:42;5.50;;;2.28;;
12214;SDS011;6170;42.206;24.142;2022-09-21T01:06:10;3.05;;;1.85;;
12214;SDS011;6170;42.206;24.142;2022-09-21T01:08:38;2.75;;;2.08;;
12214;SDS011;6170;42.206;24.142;2022-09-21T01:11:15;2.17;;;1.98;;
12214;SDS011;6170;42.206;24.142;2022-09-21T01:14:01;3.70;;;2.20;;
12214;SDS011;6170;42.206;24.142;2022-09-21T01:16:52;3.30;;;2.40;;
12214;SDS011;6170;42.206;24.142;2022-09-21T01:19:31;3.33;;;2.03;;
12214;SDS011;6170;42.206;24.142;2022-09-21T01:22:21;2.15;;;1.80;;
12214;SDS011;6170;42.206;24.142;2022-09-21T01:25:00;2.00;;;1.80;;
12214;SDS011;6170;42.206;24.142;2022-09-21T01:27:53;2.10;;;1.80;;
12214;SDS011;6170;42.206;24.142;2022-09-21T01:30:31;2.17;;;1.70;;
12214;SDS011;6170;42.206;24.142;2022-09-21T01:33:02;1.75;;;1.60;;
12214;SDS011;6170;42.206;24.142;2022-09-21T01:35:34;2.17;;;1.70;;
12214;SDS011;6170;42.206;24.142;2022-09-21T01:38:05;2.20;;;2.00;;
12214;SDS011;6170;42.206;24.142;2022-09-21T01:40:37;3.25;;;2.03;;
12214;SDS011;6170;42.206;24.142;2022-09-21T01:43:07;3.53;;;1.88;;
12214;SDS011;6170;42.206;24.142;2022-09-21T01:45:40;2.67;;;2.07;;
12214;SDS011;6170;42.206;24.142;2022-09-21T01:48:10;2.05;;;1.85;;
12214;SDS011;6170;42.206;24.142;2022-09-21T01:50:40;1.95;;;1.75;;
12214;SDS011;6170;42.206;24.142;2022-09-21T01:53:12;2.53;;;2.20;;
12214;SDS011;6170;42.206;24.142;2022-09-21T01:55:46;4.72;;;1.77;;
12214;SDS011;6170;42.206;24.142;2022-09-21T01:58:17;2.22;;;2.03;;
12214;SDS011;6170;42.206;24.142;2022-09-21T02:03:20;5.95;;;1.95;;
12214;SDS011;6170;42.206;24.142;2022-09-21T02:05:53;3.15;;;1.95;;
12214;SDS011;6170;42.206;24.142;2022-09-21T02:08:22;2.13;;;1.92;;
12214;SDS011;6170;42.206;24.142;2022-09-21T02:10:51;2.83;;;2.10;;
12214;SDS011;6170;42.206;24.142;2022-09-21T02:13:19;4.00;;;1.90;;
12214;SDS011;6170;42.206;24.142;2022-09-21T02:16:01;2.25;;;1.90;;
12214;SDS011;6170;42.206;24.142;2022-09-21T02:18:42;4.68;;;1.95;;
12214;SDS011;6170;42.206;24.142;2022-09-21T02:21:13;1.98;;;1.77;;
12214;SDS011;6170;42.206;24.142;2022-09-21T02:23:46;2.47;;;2.03;;
12214;SDS011;6170;42.206;24.142;2022-09-21T02:26:21;2.28;;;2.08;;
12214;SDS011;6170;42.206;24.142;2022-09-21T02:28:54;4.05;;;2.20;;
12214;SDS011;6170;42.206;24.142;2022-09-21T02:31:31;2.72;;;2.17;;
12214;SDS011;6170;42.206;24.142;2022-09-21T02:34:09;2.10;;;1.90;;
12214;SDS011;6170;42.206;24.142;2022-09-21T02:36:45;3.58;;;2.22;;
12214;SDS011;6170;42.206;24.142;2022-09-21T02:39:15;5.35;;;2.28;;
12214;SDS011;6170;42.206;24.142;2022-09-21T02:41:48;3.13;;;2.33;;
12214;SDS011;6170;42.206;24.142;2022-09-21T02:44:28;3.63;;;2.30;;
12214;SDS011;6170;42.206;24.142;2022-09-21T02:47:02;2.90;;;2.20;;
12214;SDS011;6170;42.206;24.142;2022-09-21T02:49:35;2.33;;;2.08;;
12214;SDS011;6170;42.206;24.142;2022-09-21T02:52:06;3.50;;;2.20;;
12214;SDS011;6170;42.206;24.142;2022-09-21T02:54:36;3.33;;;2.40;;
12214;SDS011;6170;42.206;24.142;2022-09-21T02:57:05;2.53;;;2.10;;
12214;SDS011;6170;42.206;24.142;2022-09-21T02:59:32;2.60;;;2.20;;
12214;SDS011;6170;42.206;24.142;2022-09-21T03:02:01;2.67;;;2.40;;
12214;SDS011;6170;42.206;24.142;2022-09-21T03:04:28;2.65;;;2.25;;
12214;SDS011;6170;42.206;24.142;2022-09-21T03:06:56;3.60;;;2.47;;
12214;SDS011;6170;42.206;24.142;2022-09-21T03:09:23;3.00;;;2.20;;
12214;SDS011;6170;42.206;24.142;2022-09-21T03:11:50;4.07;;;2.00;;
12214;SDS011;6170;42.206;24.142;2022-09-21T03:14:17;5.22;;;2.30;;
12214;SDS011;6170;42.206;24.142;2022-09-21T03:16:44;6.15;;;2.42;;
12214;SDS011;6170;42.206;24.142;2022-09-21T03:19:12;2.40;;;2.10;;
12214;SDS011;6170;42.206;24.142;2022-09-21T03:21:39;2.75;;;2.33;;
12214;SDS011;6170;42.206;24.142;2022-09-21T03:24:06;2.47;;;2.03;;
12214;SDS011;6170;42.206;24.142;2022-09-21T03:26:33;2.65;;;2.15;;
12214;SDS011;6170;42.206;24.142;2022-09-21T03:29:00;2.63;;;2.17;;
12214;SDS011;6170;42.206;24.142;2022-09-21T03:31:27;3.70;;;2.42;;
12214;SDS011;6170;42.206;24.142;2022-09-21T03:33:55;2.20;;;2.00;;
12214;SDS011;6170;42.206;24.142;2022-09-21T03:36:23;2.30;;;1.88;;
12214;SDS011;6170;42.206;24.142;2022-09-21T03:38:50;2.95;;;2.10;;
12214;SDS011;6170;42.206;24.142;2022-09-21T03:41:17;2.90;;;2.10;;
12214;SDS011;6170;42.206;24.142;2022-09-21T03:43:44;8.25;;;5.15;;
12214;SDS011;6170;42.206;24.142;2022-09-21T03:46:10;58.75;;;26.67;;
12214;SDS011;6170;42.206;24.142;2022-09-21T03:48:37;139.57;;;57.45;;
12214;SDS011;6170;42.206;24.142;2022-09-21T03:51:06;150.63;;;66.57;;
12214;SDS011;6170;42.206;24.142;2022-09-21T03:53:34;133.27;;;60.85;;
12214;SDS011;6170;42.206;24.142;2022-09-21T03:56:01;80.93;;;36.97;;
12214;SDS011;6170;42.206;24.142;2022-09-21T03:58:28;45.78;;;22.02;;
12214;SDS011;6170;42.206;24.142;2022-09-21T04:00:59;35.25;;;16.40;;
12214;SDS011;6170;42.206;24.142;2022-09-21T04:03:26;36.70;;;16.73;;
12214;SDS011;6170;42.206;24.142;2022-09-21T04:05:53;28.92;;;14.80;;
12214;SDS011;6170;42.206;24.142;2022-09-21T04:08:20;31.52;;;14.35;;
12214;SDS011;6170;42.206;24.142;2022-09-21T04:10:48;23.88;;;12.55;;
12214;SDS011;6170;42.206;24.142;2022-09-21T04:13:15;17.02;;;9.52;;
12214;SDS011;6170;42.206;24.142;2022-09-21T04:15:42;15.57;;;8.75;;
12214;SDS011;6170;42.206;24.142;2022-09-21T04:18:09;9.57;;;5.30;;
12214;SDS011;6170;42.206;24.142;2022-09-21T04:20:36;7.75;;;4.95;;
12214;SDS011;6170;42.206;24.142;2022-09-21T04:23:02;6.68;;;4.35;;
12214;SDS011;6170;42.206;24.142;2022-09-21T04:25:29;9.48;;;5.30;;
12214;SDS011;6170;42.206;24.142;2022-09-21T04:27:58;11.98;;;6.53;;
12214;SDS011;6170;42.206;24.142;2022-09-21T04:30:25;11.50;;;6.85;;
12214;SDS011;6170;42.206;24.142;2022-09-21T04:32:53;17.42;;;7.50;;
12214;SDS011;6170;42.206;24.142;2022-09-21T04:35:19;5.45;;;3.28;;
12214;SDS011;6170;42.206;24.142;2022-09-21T04:37:46;8.30;;;4.50;;
12214;SDS011;6170;42.206;24.142;2022-09-21T04:40:13;4.70;;;3.05;;
12214;SDS011;6170;42.206;24.142;2022-09-21T04:42:41;7.03;;;3.25;;
12214;SDS011;6170;42.206;24.142;2022-09-21T04:45:09;3.95;;;3.10;;
12214;SDS011;6170;42.206;24.142;2022-09-21T04:47:36;3.80;;;2.67;;
12214;SDS011;6170;42.206;24.142;2022-09-21T04:50:03;3.38;;;2.90;;
12214;SDS011;6170;42.206;24.142;2022-09-21T04:52:31;5.63;;;3.25;;
12214;SDS011;6170;42.206;24.142;2022-09-21T04:54:57;3.75;;;2.60;;
12214;SDS011;6170;42.206;24.142;2022-09-21T04:57:24;3.97;;;2.85;;
12214;SDS011;6170;42.206;24.142;2022-09-21T04:59:51;5.45;;;2.90;;
12214;SDS011;6170;42.206;24.142;2022-09-21T05:02:19;3.50;;;2.85;;
12214;SDS011;6170;42.206;24.142;2022-09-21T05:04:46;8.25;;;3.00;;
12214;SDS011;6170;42.206;24.142;2022-09-21T05:07:14;5.45;;;2.95;;
12214;SDS011;6170;42.206;24.142;2022-09-21T05:09:40;4.45;;;3.15;;
12214;SDS011;6170;42.206;24.142;2022-09-21T05:12:24;3.15;;;2.50;;
12214;SDS011;6170;42.206;24.142;2022-09-21T05:14:51;4.72;;;3.33;;
12214;SDS011;6170;42.206;24.142;2022-09-21T05:17:21;5.45;;;3.17;;
12214;SDS011;6170;42.206;24.142;2022-09-21T05:19:48;3.55;;;2.38;;
12214;SDS011;6170;42.206;24.142;2022-09-21T05:22:15;3.33;;;2.10;;
12214;SDS011;6170;42.206;24.142;2022-09-21T05:24:42;2.40;;;1.92;;
12214;SDS011;6170;42.206;24.142;2022-09-21T05:27:09;8.35;;;2.78;;
12214;SDS011;6170;42.206;24.142;2022-09-21T05:29:37;18.27;;;9.13;;
12214;SDS011;6170;42.206;24.142;2022-09-21T05:32:04;38.35;;;18.65;;
12214;SDS011;6170;42.206;24.142;2022-09-21T05:34:43;42.25;;;22.95;;
12214;SDS011;6170;42.206;24.142;2022-09-21T05:37:20;55.70;;;27.83;;
12214;SDS011;6170;42.206;24.142;2022-09-21T05:40:03;51.63;;;25.77;;
12214;SDS011;6170;42.206;24.142;2022-09-21T05:42:32;37.40;;;19.92;;
12214;SDS011;6170;42.206;24.142;2022-09-21T05:44:59;34.80;;;18.10;;
12214;SDS011;6170;42.206;24.142;2022-09-21T05:47:30;22.88;;;11.68;;
12214;SDS011;6170;42.206;24.142;2022-09-21T05:53:10;14.52;;;7.93;;
12214;SDS011;6170;42.206;24.142;2022-09-21T05:55:50;5.47;;;3.15;;
12214;SDS011;6170;42.206;24.142;2022-09-21T05:58:28;4.28;;;2.63;;
12214;SDS011;6170;42.206;24.142;2022-09-21T06:01:03;7.72;;;2.75;;
12214;SDS011;6170;42.206;24.142;2022-09-21T06:03:44;7.88;;;2.70;;
12214;SDS011;6170;42.206;24.142;2022-09-21T06:06:14;5.00;;;2.42;;
12214;SDS011;6170;42.206;24.142;2022-09-21T06:08:42;3.50;;;2.22;;
12214;SDS011;6170;42.206;24.142;2022-09-21T06:11:09;2.90;;;1.95;;
12214;SDS011;6170;42.206;24.142;2022-09-21T06:13:36;3.00;;;1.83;;
12214;SDS011;6170;42.206;24.142;2022-09-21T06:16:05;4.82;;;1.88;;
12214;SDS011;6170;42.206;24.142;2022-09-21T06:18:35;2.13;;;1.70;;
12214;SDS011;6170;42.206;24.142;2022-09-21T06:21:02;2.67;;;1.60;;
12214;SDS011;6170;42.206;24.142;2022-09-21T06:23:31;3.45;;;1.60;;
12214;SDS011;6170;42.206;24.142;2022-09-21T06:25:58;2.75;;;1.45;;
12214;SDS011;6170;42.206;24.142;2022-09-21T06:28:25;4.68;;;1.50;;
12214;SDS011;6170;42.206;24.142;2022-09-21T06:30:52;2.05;;;1.60;;
12214;SDS011;6170;42.206;24.142;2022-09-21T06:33:20;4.25;;;1.70;;
12214;SDS011;6170;42.206;24.142;2022-09-21T06:35:50;6.47;;;1.95;;
12214;SDS011;6170;42.206;24.142;2022-09-21T06:38:18;2.45;;;1.67;;
12214;SDS011;6170;42.206;24.142;2022-09-21T06:40:46;4.70;;;2.22;;
12214;SDS011;6170;42.206;24.142;2022-09-21T06:43:15;4.20;;;2.03;;
12214;SDS011;6170;42.206;24.142;2022-09-21T06:45:41;4.03;;;2.30;;
12214;SDS011;6170;42.206;24.142;2022-09-21T06:48:09;5.10;;;1.80;;
12214;SDS011;6170;42.206;24.142;2022-09-21T06:50:35;2.40;;;1.50;;
12214;SDS011;6170;42.206;24.142;2022-09-21T06:53:02;1.50;;;1.30;;
12214;SDS011;6170;42.206;24.142;2022-09-21T06:55:29;3.08;;;1.42;;
12214;SDS011;6170;42.206;24.142;2022-09-21T06:58:01;1.65;;;1.50;;
12214;SDS011;6170;42.206;24.142;2022-09-21T07:00:29;6.63;;;1.70;;
12214;SDS011;6170;42.206;24.142;2022-09-21T07:02:57;3.65;;;1.50;;
12214;SDS011;6170;42.206;24.142;2022-09-21T07:05:24;3.78;;;1.25;;
12214;SDS011;6170;42.206;24.142;2022-09-21T07:07:55;2.13;;;1.42;;
12214;SDS011;6170;42.206;24.142;2022-09-21T07:10:22;2.33;;;1.55;;
12214;SDS011;6170;42.206;24.142;2022-09-21T07:12:49;2.30;;;1.40;;
12214;SDS011;6170;42.206;24.142;2022-09-21T07:15:17;4.80;;;1.50;;
12214;SDS011;6170;42.206;24.142;2022-09-21T07:20:41;2.42;;;1.30;;
12214;SDS011;6170;42.206;24.142;2022-09-21T07:23:08;2.97;;;1.10;;
12214;SDS011;6170;42.206;24.142;2022-09-21T07:25:36;3.08;;;1.38;;
12214;SDS011;6170;42.206;24.142;2022-09-21T07:28:03;1.65;;;1.08;;
12214;SDS011;6170;42.206;24.142;2022-09-21T07:30:31;2.08;;;1.25;;
12214;SDS011;6170;42.206;24.142;2022-09-21T07:32:58;2.95;;;1.20;;
12214;SDS011;6170;42.206;24.142;2022-09-21T07:35:25;1.40;;;1.30;;
12214;SDS011;6170;42.206;24.142;2022-09-21T07:37:52;2.90;;;1.23;;
12214;SDS011;6170;42.206;24.142;2022-09-21T07:40:20;4.25;;;1.10;;
12214;SDS011;6170;42.206;24.142;2022-09-21T07:42:48;1.80;;;1.10;;
12214;SDS011;6170;42.206;24.142;2022-09-21T07:45:14;1.83;;;1.40;;
12214;SDS011;6170;42.206;24.142;2022-09-21T07:47:43;2.42;;;1.10;;
12214;SDS011;6170;42.206;24.142;2022-09-21T07:50:10;5.03;;;1.20;;
12214;SDS011;6170;42.206;24.142;2022-09-21T07:52:37;1.38;;;1.10;;
12214;SDS011;6170;42.206;24.142;2022-09-21T07:55:04;1.58;;;1.30;;
12214;SDS011;6170;42.206;24.142;2022-09-21T07:57:32;6.32;;;1.88;;
12214;SDS011;6170;42.206;24.142;2022-09-21T08:00:16;7.00;;;1.90;;
12214;SDS011;6170;42.206;24.142;2022-09-21T08:02:44;2.53;;;1.48;;
12214;SDS011;6170;42.206;24.142;2022-09-21T08:05:11;2.90;;;1.50;;
12214;SDS011;6170;42.206;24.142;2022-09-21T08:07:38;2.83;;;1.75;;
12214;SDS011;6170;42.206;24.142;2022-09-21T08:10:05;2.10;;;1.30;;
12214;SDS011;6170;42.206;24.142;2022-09-21T08:12:32;4.63;;;1.30;;
12214;SDS011;6170;42.206;24.142;2022-09-21T08:14:59;4.43;;;1.30;;
12214;SDS011;6170;42.206;24.142;2022-09-21T08:17:26;3.72;;;1.40;;
12214;SDS011;6170;42.206;24.142;2022-09-21T08:19:55;1.83;;;1.40;;
12214;SDS011;6170;42.206;24.142;2022-09-21T08:22:22;6.82;;;1.50;;
12214;SDS011;6170;42.206;24.142;2022-09-21T08:24:50;2.95;;;1.73;;
12214;SDS011;6170;42.206;24.142;2022-09-21T08:27:16;3.13;;;1.48;;
12214;SDS011;6170;42.206;24.142;2022-09-21T08:29:44;4.88;;;1.23;;
12214;SDS011;6170;42.206;24.142;2022-09-21T08:32:11;3.03;;;1.30;;
12214;SDS011;6170;42.206;24.142;2022-09-21T08:34:38;3.70;;;1.35;;
12214;SDS011;6170;42.206;24.142;2022-09-21T08:37:06;1.20;;;1.00;;
12214;SDS011;6170;42.206;24.142;2022-09-21T08:39:33;1.70;;;1.08;;
12214;SDS011;6170;42.206;24.142;2022-09-21T08:42:03;2.65;;;1.13;;
12214;SDS011;6170;42.206;24.142;2022-09-21T08:44:39;6.05;;;1.10;;
12214;SDS011;6170;42.206;24.142;2022-09-21T08:47:10;2.53;;;1.13;;
12214;SDS011;6170;42.206;24.142;2022-09-21T08:49:40;1.40;;;1.25;;
12214;SDS011;6170;42.206;24.142;2022-09-21T08:52:14;3.00;;;1.30;;
12214;SDS011;6170;42.206;24.142;2022-09-21T08:54:44;1.10;;;1.00;;
12214;SDS011;6170;42.206;24.142;2022-09-21T08:57:16;1.55;;;1.15;;
12214;SDS011;6170;42.206;24.142;2022-09-21T08:59:45;3.50;;;1.08;;
12214;SDS011;6170;42.206;24.142;2022-09-21T09:02:20;1.83;;;0.98;;
12214;SDS011;6170;42.206;24.142;2022-09-21T09:05:13;1.85;;;1.05;;
12214;SDS011;6170;42.206;24.142;2022-09-21T09:07:57;1.25;;;1.00;;
12214;SDS011;6170;42.206;24.142;2022-09-21T09:10:44;4.43;;;1.00;;
12214;SDS011;6170;42.206;24.142;2022-09-21T09:13:26;2.50;;;1.75;;
12214;SDS011;6170;42.206;24.142;2022-09-21T09:16:08;6.93;;;3.05;;
12214;SDS011;6170;42.206;24.142;2022-09-21T09:18:43;5.35;;;2.80;;
12214;SDS011;6170;42.206;24.142;2022-09-21T09:21:15;1.30;;;1.20;;
12214;SDS011;6170;42.206;24.142;2022-09-21T09:23:47;1.48;;;1.38;;
12214;SDS011;6170;42.206;24.142;2022-09-21T09:26:20;1.83;;;0.98;;
12214;SDS011;6170;42.206;24.142;2022-09-21T09:28:52;2.05;;;0.80;;
12214;SDS011;6170;42.206;24.142;2022-09-21T09:31:24;1.15;;;1.05;;
12214;SDS011;6170;42.206;24.142;2022-09-21T09:33:55;5.65;;;1.17;;
12214;SDS011;6170;42.206;24.142;2022-09-21T09:36:28;1.98;;;1.27;;
12214;SDS011;6170;42.206;24.142;2022-09-21T09:39:00;2.50;;;1.67;;
12214;SDS011;6170;42.206;24.142;2022-09-21T09:44:37;3.13;;;2.35;;
12214;SDS011;6170;42.206;24.142;2022-09-21T09:47:18;2.53;;;2.00;;
12214;SDS011;6170;42.206;24.142;2022-09-21T09:49:59;2.35;;;1.20;;
12214;SDS011;6170;42.206;24.142;2022-09-21T09:52:30;2.35;;;2.10;;
12214;SDS011;6170;42.206;24.142;2022-09-21T09:54:59;2.30;;;1.67;;
12214;SDS011;6170;42.206;24.142;2022-09-21T09:57:27;3.88;;;2.25;;
12214;SDS011;6170;42.206;24.142;2022-09-21T09:59:57;3.90;;;2.30;;
12214;SDS011;6170;42.206;24.142;2022-09-21T10:02:27;8.48;;;2.88;;
12214;SDS011;6170;42.206;24.142;2022-09-21T10:04:56;5.00;;;2.60;;
12214;SDS011;6170;42.206;24.142;2022-09-21T10:07:32;5.10;;;1.70;;
12214;SDS011;6170;42.206;24.142;2022-09-21T10:12:29;3.33;;;1.70;;
12214;SDS011;6170;42.206;24.142;2022-09-21T10:14:56;3.88;;;2.63;;
12214;SDS011;6170;42.206;24.142;2022-09-21T10:17:24;6.72;;;2.10;;
12214;SDS011;6170;42.206;24.142;2022-09-21T10:19:57;3.38;;;1.80;;
12214;SDS011;6170;42.206;24.142;2022-09-21T10:22:25;6.72;;;3.88;;
12214;SDS011;6170;42.206;24.142;2022-09-21T10:24:54;11.20;;;4.13;;
12214;SDS011;6170;42.206;24.142;2022-09-21T10:27:25;3.65;;;1.85;;
12214;SDS011;6170;42.206;24.142;2022-09-21T10:29:54;2.25;;;1.40;;
12214;SDS011;6170;42.206;24.142;2022-09-21T10:32:22;2.72;;;1.70;;
12214;SDS011;6170;42.206;24.142;2022-09-21T10:37:45;2.28;;;1.20;;
12214;SDS011;6170;42.206;24.142;2022-09-21T10:42:54;5.13;;;1.33;;
12214;SDS011;6170;42.206;24.142;2022-09-21T10:45:24;1.60;;;1.27;;
12214;SDS011;6170;42.206;24.142;2022-09-21T10:47:53;4.72;;;1.48;;
12214;SDS011;6170;42.206;24.142;2022-09-21T10:50:23;1.85;;;1.27;;
12214;SDS011;6170;42.206;24.142;2022-09-21T10:52:55;2.75;;;1.38;;
12214;SDS011;6170;42.206;24.142;2022-09-21T10:55:25;1.98;;;1.40;;
12214;SDS011;6170;42.206;24.142;2022-09-21T10:57:55;2.72;;;1.55;;
12214;SDS011;6170;42.206;24.142;2022-09-21T11:00:30;2.22;;;1.52;;
12214;SDS011;6170;42.206;24.142;2022-09-21T11:03:05;3.83;;;1.30;;
12214;SDS011;6170;42.206;24.142;2022-09-21T11:05:54;2.88;;;1.30;;
12214;SDS011;6170;42.206;24.142;2022-09-21T11:08:26;6.32;;;1.42;;
12214;SDS011;6170;42.206;24.142;2022-09-21T11:11:02;1.10;;;1.00;;
12214;SDS011;6170;42.206;24.142;2022-09-21T11:13:43;1.23;;;1.10;;
12214;SDS011;6170;42.206;24.142;2022-09-21T11:16:15;5.85;;;1.33;;
12214;SDS011;6170;42.206;24.142;2022-09-21T11:18:50;6.07;;;1.10;;
12214;SDS011;6170;42.206;24.142;2022-09-21T11:21:23;2.10;;;1.20;;
12214;SDS011;6170;42.206;24.142;2022-09-21T11:24:00;1.45;;;1.05;;
12214;SDS011;6170;42.206;24.142;2022-09-21T11:26:36;2.88;;;1.25;;
12214;SDS011;6170;42.206;24.142;2022-09-21T11:29:12;3.08;;;1.40;;
12214;SDS011;6170;42.206;24.142;2022-09-21T11:31:48;3.90;;;1.20;;
12214;SDS011;6170;42.206;24.142;2022-09-21T11:34:30;1.40;;;1.08;;
12214;SDS011;6170;42.206;24.142;2022-09-21T11:37:09;1.73;;;1.17;;
12214;SDS011;6170;42.206;24.142;2022-09-21T11:39:45;2.97;;;1.27;;
12214;SDS011;6170;42.206;24.142;2022-09-21T11:42:30;2.72;;;1.10;;
12214;SDS011;6170;42.206;24.142;2022-09-21T11:45:17;4.38;;;1.27;;
12214;SDS011;6170;42.206;24.142;2022-09-21T11:48:01;6.03;;;1.50;;
12214;SDS011;6170;42.206;24.142;2022-09-21T11:50:43;1.75;;;1.42;;
12214;SDS011;6170;42.206;24.142;2022-09-21T11:53:20;6.68;;;1.60;;
12214;SDS011;6170;42.206;24.142;2022-09-21T11:56:02;2.58;;;1.20;;
12214;SDS011;6170;42.206;24.142;2022-09-21T11:58:41;1.67;;;1.05;;
12214;SDS011;6170;42.206;24.142;2022-09-21T12:01:29;2.97;;;1.23;;
12214;SDS011;6170;42.206;24.142;2022-09-21T12:04:14;1.67;;;1.10;;
12214;SDS011;6170;42.206;24.142;2022-09-21T12:06:57;1.13;;;1.02;;
12214;SDS011;6170;42.206;24.142;2022-09-21T12:09:40;6.25;;;1.30;;
12214;SDS011;6170;42.206;24.142;2022-09-21T12:12:20;8.82;;;1.23;;
12214;SDS011;6170;42.206;24.142;2022-09-21T12:14:58;1.20;;;0.80;;
12214;SDS011;6170;42.206;24.142;2022-09-21T12:17:33;1.95;;;1.02;;
12214;SDS011;6170;42.206;24.142;2022-09-21T12:20:09;2.72;;;1.17;;
12214;SDS011;6170;42.206;24.142;2022-09-21T12:22:42;1.48;;;0.90;;
12214;SDS011;6170;42.206;24.142;2022-09-21T12:25:12;5.05;;;2.88;;
12214;SDS011;6170;42.206;24.142;2022-09-21T12:27:43;7.63;;;3.72;;
12214;SDS011;6170;42.206;24.142;2022-09-21T12:30:14;2.78;;;1.35;;
12214;SDS011;6170;42.206;24.142;2022-09-21T12:32:48;2.10;;;1.27;;
12214;SDS011;6170;42.206;24.142;2022-09-21T12:35:21;1.10;;;1.00;;
12214;SDS011;6170;42.206;24.142;2022-09-21T12:37:53;0.70;;;0.70;;
12214;SDS011;6170;42.206;24.142;2022-09-21T12:40:27;1.98;;;1.10;;
12214;SDS011;6170;42.206;24.142;2022-09-21T12:43:03;2.88;;;0.90;;
12214;SDS011;6170;42.206;24.142;2022-09-21T12:45:39;1.55;;;0.73;;
12214;SDS011;6170;42.206;24.142;2022-09-21T12:48:13;3.97;;;0.90;;
12214;SDS011;6170;42.206;24.142;2022-09-21T12:50:47;3.83;;;1.00;;
12214;SDS011;6170;42.206;24.142;2022-09-21T12:53:19;1.08;;;0.85;;
12214;SDS011;6170;42.206;24.142;2022-09-21T12:55:51;2.50;;;0.88;;
12214;SDS011;6170;42.206;24.142;2022-09-21T12:58:26;0.88;;;0.80;;
12214;SDS011;6170;42.206;24.142;2022-09-21T13:01:07;1.52;;;0.90;;
12214;SDS011;6170;42.206;24.142;2022-09-21T13:03:48;3.90;;;1.00;;
12214;SDS011;6170;42.206;24.142;2022-09-21T13:06:33;1.25;;;1.00;;
12214;SDS011;6170;42.206;24.142;2022-09-21T13:09:13;3.28;;;1.05;;
12214;SDS011;6170;42.206;24.142;2022-09-21T13:11:50;6.03;;;1.65;;
12214;SDS011;6170;42.206;24.142;2022-09-21T13:14:21;1.50;;;1.15;;
12214;SDS011;6170;42.206;24.142;2022-09-21T13:16:52;3.80;;;1.10;;
12214;SDS011;6170;42.206;24.142;2022-09-21T13:19:23;1.10;;;1.00;;
12214;SDS011;6170;42.206;24.142;2022-09-21T13:22:10;2.38;;;0.98;;
12214;SDS011;6170;42.206;24.142;2022-09-21T13:24:40;1.83;;;1.38;;
12214;SDS011;6170;42.206;24.142;2022-09-21T13:27:09;1.80;;;1.17;;
12214;SDS011;6170;42.206;24.142;2022-09-21T13:29:38;2.13;;;1.25;;
12214;SDS011;6170;42.206;24.142;2022-09-21T13:34:50;1.30;;;1.00;;
12214;SDS011;6170;42.206;24.142;2022-09-21T13:37:27;2.83;;;1.10;;
12214;SDS011;6170;42.206;24.142;2022-09-21T13:49:16;9.65;;;2.38;;
12214;SDS011;6170;42.206;24.142;2022-09-21T13:54:20;2.15;;;1.40;;
12214;SDS011;6170;42.206;24.142;2022-09-21T13:57:02;5.07;;;1.70;;
12214;SDS011;6170;42.206;24.142;2022-09-21T13:59:33;7.63;;;3.30;;
12214;SDS011;6170;42.206;24.142;2022-09-21T14:02:07;13.13;;;3.95;;
12214;SDS011;6170;42.206;24.142;2022-09-21T14:04:56;6.75;;;3.53;;
12214;SDS011;6170;42.206;24.142;2022-09-21T14:07:30;4.82;;;1.70;;
12214;SDS011;6170;42.206;24.142;2022-09-21T14:10:00;3.85;;;1.30;;
12214;SDS011;6170;42.206;24.142;2022-09-21T14:12:31;3.00;;;1.10;;
12214;SDS011;6170;42.206;24.142;2022-09-21T14:18:08;1.42;;;1.30;;
12214;SDS011;6170;42.206;24.142;2022-09-21T14:23:42;9.20;;;1.65;;
12214;SDS011;6170;42.206;24.142;2022-09-21T14:26:52;4.05;;;1.05;;
12214;SDS011;6170;42.206;24.142;2022-09-21T14:29:25;1.08;;;0.90;;
12214;SDS011;6170;42.206;24.142;2022-09-21T14:31:57;2.83;;;1.50;;
12214;SDS011;6170;42.206;24.142;2022-09-21T14:34:30;7.35;;;1.40;;
12214;SDS011;6170;42.206;24.142;2022-09-21T14:37:02;2.33;;;1.40;;
12214;SDS011;6170;42.206;24.142;2022-09-21T14:39:36;1.63;;;1.20;;
12214;SDS011;6170;42.206;24.142;2022-09-21T14:44:36;4.82;;;1.27;;
12214;SDS011;6170;42.206;24.142;2022-09-21T14:47:12;1.77;;;1.00;;
12214;SDS011;6170;42.206;24.142;2022-09-21T14:50:01;2.55;;;1.10;;
12214;SDS011;6170;42.206;24.142;2022-09-21T14:52:46;1.85;;;1.17;;
12214;SDS011;6170;42.206;24.142;2022-09-21T14:55:34;4.03;;;1.10;;
12214;SDS011;6170;42.206;24.142;2022-09-21T14:58:20;1.13;;;1.02;;
12214;SDS011;6170;42.206;24.142;2022-09-21T15:00:57;1.67;;;1.13;;
12214;SDS011;6170;42.206;24.142;2022-09-21T15:03:50;1.90;;;1.20;;
12214;SDS011;6170;42.206;24.142;2022-09-21T15:06:33;2.78;;;1.13;;
12214;SDS011;6170;42.206;24.142;2022-09-21T15:09:24;3.72;;;1.15;;
12214;SDS011;6170;42.206;24.142;2022-09-21T15:12:23;1.95;;;1.20;;
12214;SDS011;6170;42.206;24.142;2022-09-21T15:14:58;1.48;;;1.30;;
12214;SDS011;6170;42.206;24.142;2022-09-21T15:17:31;1.10;;;0.93;;
12214;SDS011;6170;42.206;24.142;2022-09-21T15:19:58;1.10;;;1.00;;
12214;SDS011;6170;42.206;24.142;2022-09-21T15:22:26;2.50;;;1.33;;
12214;SDS011;6170;42.206;24.142;2022-09-21T15:24:54;5.15;;;1.30;;
12214;SDS011;6170;42.206;24.142;2022-09-21T15:27:24;1.60;;;1.20;;
12214;SDS011;6170;42.206;24.142;2022-09-21T15:29:57;2.15;;;1.50;;
12214;SDS011;6170;42.206;24.142;2022-09-21T15:32:29;1.20;;;1.10;;
12214;SDS011;6170;42.206;24.142;2022-09-21T15:35:00;3.60;;;1.17;;
12214;SDS011;6170;42.206;24.142;2022-09-21T15:37:33;2.42;;;1.23;;
12214;SDS011;6170;42.206;24.142;2022-09-21T15:40:04;2.05;;;1.50;;
12214;SDS011;6170;42.206;24.142;2022-09-21T15:42:35;4.20;;;3.50;;
12214;SDS011;6170;42.206;24.142;2022-09-21T15:45:25;3.08;;;1.90;;
12214;SDS011;6170;42.206;24.142;2022-09-21T15:47:53;4.45;;;2.50;;
12214;SDS011;6170;42.206;24.142;2022-09-21T15:50:22;8.13;;;6.43;;
12214;SDS011;6170;42.206;24.142;2022-09-21T15:52:50;3.22;;;2.55;;
12214;SDS011;6170;42.206;24.142;2022-09-21T15:55:21;2.92;;;2.00;;
12214;SDS011;6170;42.206;24.142;2022-09-21T15:57:51;9.02;;;4.95;;